createdAt,value
2023-03-04T00:00:10.321Z,8.40
2023-03-04T00:02:38.738Z,8.70
2023-03-04T00:05:08.377Z,8.40
2023-03-04T00:07:37.933Z,8.13
2023-03-04T00:10:07.904Z,8.73
2023-03-04T00:12:35.945Z,8.77
2023-03-04T00:15:04.416Z,9.27
2023-03-04T00:17:32.465Z,9.17
2023-03-04T00:20:00.583Z,9.60
2023-03-04T00:22:28.661Z,10.07
2023-03-04T00:24:58.061Z,10.20
2023-03-04T00:27:26.118Z,9.13
2023-03-04T00:29:54.196Z,10.97
2023-03-04T00:32:22.347Z,10.13
2023-03-04T00:34:50.775Z,10.87
2023-03-04T00:37:18.885Z,10.67
2023-03-04T00:39:47.012Z,10.67
2023-03-04T00:42:16.623Z,11.57
2023-03-04T00:44:44.768Z,11.10
2023-03-04T00:47:12.904Z,13.47
2023-03-04T00:49:40.985Z,11.87
2023-03-04T00:52:09.098Z,13.80
2023-03-04T00:54:37.241Z,15.03
2023-03-04T00:57:05.418Z,15.87
2023-03-04T00:59:35.722Z,15.30
2023-03-04T01:02:03.945Z,15.57
2023-03-04T01:04:32.050Z,13.67
2023-03-04T01:07:00.192Z,14.23
2023-03-04T01:09:28.518Z,13.77
2023-03-04T01:11:56.638Z,13.80
2023-03-04T01:14:24.809Z,13.20
2023-03-04T01:16:54.543Z,13.50
2023-03-04T01:19:23.020Z,13.13
2023-03-04T01:21:51.152Z,12.73
2023-03-04T01:24:19.334Z,13.23
2023-03-04T01:26:47.447Z,12.00
2023-03-04T01:29:15.734Z,12.70
2023-03-04T01:31:43.862Z,12.30
2023-03-04T01:34:13.390Z,12.03
2023-03-04T01:36:41.540Z,11.83
2023-03-04T01:39:09.704Z,11.63
2023-03-04T01:41:38.049Z,11.47
2023-03-04T01:44:06.930Z,10.33
2023-03-04T01:46:35.153Z,11.07
2023-03-04T01:49:03.334Z,10.53
2023-03-04T01:51:32.904Z,11.17
2023-03-04T01:54:01.019Z,11.17
2023-03-04T01:56:35.405Z,10.50
2023-03-04T01:59:16.434Z,10.30
2023-03-04T02:01:47.516Z,10.73
2023-03-04T02:04:18.027Z,10.47
2023-03-04T02:06:49.618Z,11.17
2023-03-04T02:09:19.415Z,10.73
2023-03-04T02:11:49.215Z,10.40
2023-03-04T02:14:19.392Z,10.90
2023-03-04T02:16:49.085Z,11.03
2023-03-04T02:19:32.782Z,10.90
2023-03-04T02:22:02.352Z,11.50
2023-03-04T02:24:40.273Z,10.23
2023-03-04T02:27:09.881Z,10.97
2023-03-04T02:29:38.315Z,10.80
2023-03-04T02:32:06.741Z,10.67
2023-03-04T02:34:37.045Z,10.87
2023-03-04T02:37:05.668Z,10.53
2023-03-04T02:39:36.966Z,10.70
2023-03-04T02:42:05.874Z,11.53
2023-03-04T02:44:38.813Z,10.90
2023-03-04T02:47:10.541Z,10.93
2023-03-04T02:49:42.347Z,11.23
2023-03-04T02:52:14.913Z,11.67
2023-03-04T02:54:43.065Z,10.90
2023-03-04T02:57:13.708Z,11.17
2023-03-04T02:59:43.819Z,11.50
2023-03-04T03:02:12.454Z,11.47
2023-03-04T03:04:42.257Z,11.60
2023-03-04T03:07:10.515Z,11.23
2023-03-04T03:09:38.693Z,11.63
2023-03-04T03:12:07.279Z,10.93
2023-03-04T03:14:35.400Z,11.17
2023-03-04T03:17:04.894Z,11.97
2023-03-04T03:19:33.073Z,11.27
2023-03-04T03:22:01.193Z,12.50
2023-03-04T03:24:29.287Z,10.77
2023-03-04T03:26:57.436Z,11.23
2023-03-04T03:29:25.577Z,11.50
2023-03-04T03:31:53.824Z,11.87
2023-03-04T03:34:23.576Z,13.13
2023-03-04T03:36:51.705Z,11.97
2023-03-04T03:39:19.999Z,11.67
2023-03-04T03:41:48.182Z,11.50
2023-03-04T03:44:16.329Z,11.50
2023-03-04T03:46:44.448Z,12.27
2023-03-04T03:49:12.596Z,12.40
2023-03-04T03:51:42.117Z,11.77
2023-03-04T03:54:10.411Z,12.73
2023-03-04T03:56:38.561Z,12.47
2023-03-04T03:59:06.761Z,12.17
2023-03-04T04:01:35.178Z,12.13
2023-03-04T04:04:03.401Z,11.80
2023-03-04T04:06:31.641Z,13.13
2023-03-04T04:09:01.222Z,11.73
2023-03-04T04:11:29.370Z,11.93
2023-03-04T04:13:57.509Z,11.50
2023-03-04T04:16:26.019Z,12.67
2023-03-04T04:18:54.378Z,12.10
2023-03-04T04:21:22.494Z,11.20
2023-03-04T04:23:50.665Z,11.10
2023-03-04T04:26:20.160Z,11.97
2023-03-04T04:28:49.618Z,11.60
2023-03-04T04:31:17.833Z,11.50
2023-03-04T04:33:45.991Z,11.77
2023-03-04T04:36:16.588Z,11.40
2023-03-04T04:38:45.714Z,12.40
2023-03-04T04:41:23.846Z,11.87
2023-03-04T04:43:52.475Z,11.30
2023-03-04T04:46:21.551Z,11.80
2023-03-04T04:48:49.975Z,10.93
2023-03-04T04:51:18.176Z,10.60
2023-03-04T04:53:46.448Z,11.03
2023-03-04T04:56:18.464Z,10.43
2023-03-04T04:58:49.274Z,9.77
2023-03-04T05:01:17.761Z,10.80
2023-03-04T05:03:46.063Z,11.73
2023-03-04T05:06:14.597Z,11.20
2023-03-04T05:08:42.758Z,9.57
2023-03-04T05:11:10.897Z,10.40
2023-03-04T05:13:39.561Z,9.83
2023-03-04T05:16:10.257Z,9.63
2023-03-04T05:18:38.680Z,10.57
2023-03-04T05:21:07.177Z,10.80
2023-03-04T05:23:39.096Z,10.97
2023-03-04T05:26:09.723Z,9.90
2023-03-04T05:28:38.283Z,10.77
2023-03-04T05:31:08.258Z,10.83
2023-03-04T05:33:36.624Z,10.50
2023-03-04T05:36:06.860Z,11.20
2023-03-04T05:38:35.559Z,10.50
2023-03-04T05:41:07.450Z,11.37
2023-03-04T05:43:38.287Z,10.53
2023-03-04T05:46:08.162Z,11.07
2023-03-04T05:48:36.432Z,10.57
2023-03-04T05:51:04.640Z,11.30
2023-03-04T05:53:32.912Z,11.20
2023-03-04T05:56:01.009Z,10.70
2023-03-04T05:58:29.209Z,10.80
2023-03-04T06:01:02.047Z,10.83
2023-03-04T06:03:31.700Z,10.80
2023-03-04T06:06:00.302Z,10.57
2023-03-04T06:08:28.927Z,10.17
2023-03-04T06:10:59.259Z,10.53
2023-03-04T06:13:27.736Z,10.30
2023-03-04T06:15:58.092Z,11.13
2023-03-04T06:18:28.068Z,10.90
2023-03-04T06:21:00.104Z,11.10
2023-03-04T06:23:29.492Z,10.77
2023-03-04T06:26:01.525Z,11.10
2023-03-04T06:28:30.333Z,10.70
2023-03-04T06:30:59.140Z,11.20
2023-03-04T06:33:27.494Z,11.50
2023-03-04T06:35:57.007Z,11.93
2023-03-04T06:38:27.591Z,10.80
2023-03-04T06:40:57.554Z,11.30
2023-03-04T06:43:25.871Z,11.37
2023-03-04T06:45:54.216Z,11.27
2023-03-04T06:48:22.411Z,10.30
2023-03-04T06:50:50.524Z,10.17
2023-03-04T06:53:18.777Z,10.67
2023-03-04T06:55:48.345Z,10.00
2023-03-04T06:58:17.392Z,10.87
2023-03-04T07:00:45.656Z,10.33
2023-03-04T07:03:13.956Z,10.57
2023-03-04T07:05:43.311Z,9.87
2023-03-04T07:08:11.441Z,10.33
2023-03-04T07:10:39.583Z,10.10
2023-03-04T07:13:09.275Z,10.17
2023-03-04T07:15:38.569Z,9.63
2023-03-04T07:18:06.715Z,9.23
2023-03-04T07:20:34.901Z,9.67
2023-03-04T07:23:03.026Z,9.20
2023-03-04T07:25:31.144Z,9.40
2023-03-04T07:27:59.430Z,8.87
2023-03-04T07:30:29.030Z,9.90
2023-03-04T07:32:59.141Z,8.87
2023-03-04T07:35:27.511Z,8.70
2023-03-04T07:37:55.647Z,8.20
2023-03-04T07:40:24.341Z,8.43
2023-03-04T07:42:53.353Z,8.73
2023-03-04T07:45:22.607Z,8.37
2023-03-04T07:47:52.761Z,7.73
2023-03-04T07:50:22.413Z,8.40
2023-03-04T07:52:51.943Z,7.90
2023-03-04T07:55:20.708Z,7.77
2023-03-04T07:57:49.461Z,6.80
2023-03-04T08:00:19.587Z,7.63
2023-03-04T08:02:47.801Z,7.63
2023-03-04T08:05:17.658Z,6.87
2023-03-04T08:07:45.813Z,5.87
2023-03-04T08:10:13.963Z,5.90
2023-03-04T08:12:42.165Z,5.90
2023-03-04T08:15:11.891Z,5.67
2023-03-04T08:17:40.048Z,5.60
2023-03-04T08:20:09.739Z,5.27
2023-03-04T08:22:39.231Z,5.70
2023-03-04T08:25:08.087Z,4.93
2023-03-04T08:27:37.242Z,5.23
2023-03-04T08:30:06.716Z,5.17
2023-03-04T08:32:35.217Z,4.50
2023-03-04T08:35:03.654Z,4.77
2023-03-04T08:37:31.747Z,4.53
2023-03-04T08:40:01.393Z,4.97
2023-03-04T08:42:29.538Z,4.40
2023-03-04T08:44:57.668Z,5.33
2023-03-04T08:47:25.860Z,4.97
2023-03-04T08:49:54.026Z,4.30
2023-03-04T08:52:22.212Z,3.70
2023-03-04T08:54:50.372Z,4.33
2023-03-04T08:57:19.819Z,4.40
2023-03-04T08:59:48.198Z,4.67
2023-03-04T09:02:16.289Z,4.33
2023-03-04T09:04:44.392Z,3.60
2023-03-04T09:07:14.132Z,3.80
2023-03-04T09:09:42.664Z,3.40
2023-03-04T09:12:11.322Z,3.67
2023-03-04T09:14:41.066Z,3.60
2023-03-04T09:17:10.052Z,3.27
2023-03-04T09:19:38.792Z,3.60
2023-03-04T09:22:06.954Z,3.40
2023-03-04T09:24:35.067Z,3.50
2023-03-04T09:27:03.266Z,3.47
2023-03-04T09:29:31.414Z,3.30
2023-03-04T09:32:00.962Z,3.23
2023-03-04T09:34:29.096Z,3.00
2023-03-04T09:36:57.267Z,3.07
2023-03-04T09:39:25.544Z,2.77
2023-03-04T09:41:59.062Z,2.93
2023-03-04T09:44:32.592Z,2.93
2023-03-04T09:47:05.497Z,2.50
2023-03-04T09:49:34.237Z,2.53
2023-03-04T09:52:14.288Z,2.43
2023-03-04T09:55:05.905Z,2.50
2023-03-04T09:57:51.225Z,2.43
2023-03-04T10:00:24.003Z,2.90
2023-03-04T10:03:17.761Z,2.33
2023-03-04T10:05:56.296Z,2.50
2023-03-04T10:08:51.455Z,2.63
2023-03-04T10:11:29.821Z,2.13
2023-03-04T10:14:13.621Z,2.70
2023-03-04T10:16:46.860Z,2.00
2023-03-04T10:19:31.749Z,2.30
2023-03-04T10:22:00.480Z,2.50
2023-03-04T10:24:31.172Z,2.33
2023-03-04T10:27:08.175Z,2.40
2023-03-04T10:29:37.563Z,2.50
2023-03-04T10:32:05.828Z,2.83
2023-03-04T10:34:35.361Z,2.60
2023-03-04T10:37:07.533Z,2.43
2023-03-04T10:39:39.965Z,2.37
2023-03-04T10:42:28.764Z,2.23
2023-03-04T10:44:59.607Z,2.60
2023-03-04T10:47:31.256Z,2.60
2023-03-04T10:50:04.031Z,2.20
2023-03-04T10:52:36.940Z,2.50
2023-03-04T10:55:17.185Z,2.30
2023-03-04T10:57:50.959Z,2.40
2023-03-04T11:00:31.951Z,2.20
2023-03-04T11:03:32.889Z,2.77
2023-03-04T11:06:18.240Z,2.13
2023-03-04T11:08:54.043Z,1.90
2023-03-04T11:11:26.008Z,2.20
2023-03-04T11:14:00.325Z,2.27
2023-03-04T11:16:32.000Z,2.30
2023-03-04T11:19:07.225Z,1.90
2023-03-04T11:21:41.693Z,2.60
2023-03-04T11:24:28.025Z,2.23
2023-03-04T11:27:05.423Z,1.93
2023-03-04T11:29:43.235Z,2.30
2023-03-04T11:32:20.060Z,2.00
2023-03-04T11:34:54.035Z,2.10
2023-03-04T11:37:30.946Z,2.37
2023-03-04T11:40:05.990Z,2.33
2023-03-04T11:42:42.434Z,2.00
2023-03-04T11:45:27.918Z,2.03
2023-03-04T11:48:13.866Z,2.10
2023-03-04T11:50:52.347Z,1.97
2023-03-04T11:53:45.783Z,2.00
2023-03-04T11:56:32.812Z,2.30
2023-03-04T11:59:24.126Z,2.17
2023-03-04T12:02:12.576Z,2.00
2023-03-04T12:05:20.862Z,2.17
2023-03-04T12:08:27.644Z,2.67
2023-03-04T12:11:07.076Z,2.07
2023-03-04T12:14:02.026Z,2.40
2023-03-04T12:16:57.674Z,2.97
2023-03-04T12:19:46.208Z,3.00
2023-03-04T12:22:31.092Z,2.80
2023-03-04T12:25:37.148Z,2.70
2023-03-04T12:28:37.910Z,2.60
2023-03-04T12:31:35.418Z,2.70
2023-03-04T12:34:40.982Z,2.40
2023-03-04T12:37:40.520Z,2.40
2023-03-04T12:40:39.450Z,2.50
2023-03-04T12:43:36.094Z,3.10
2023-03-04T12:46:20.131Z,2.40
2023-03-04T12:49:06.519Z,2.87
2023-03-04T12:51:46.249Z,2.60
2023-03-04T12:54:31.684Z,3.00
2023-03-04T12:57:07.266Z,3.17
2023-03-04T12:59:43.849Z,3.30
2023-03-04T13:02:36.435Z,3.20
2023-03-04T13:05:26.495Z,3.50
2023-03-04T13:08:09.387Z,3.47
2023-03-04T13:10:37.762Z,3.77
2023-03-04T13:13:05.989Z,3.30
2023-03-04T13:15:38.726Z,2.53
2023-03-04T13:18:32.687Z,2.30
2023-03-04T13:21:22.815Z,1.97
2023-03-04T13:23:52.132Z,2.17
2023-03-04T13:26:32.491Z,2.10
2023-03-04T13:29:36.807Z,2.00
2023-03-04T13:32:12.470Z,2.10
2023-03-04T13:34:51.772Z,1.97
2023-03-04T13:37:35.574Z,2.00
2023-03-04T13:40:40.670Z,1.97
2023-03-04T13:43:39.898Z,2.40
2023-03-04T13:46:46.630Z,2.47
2023-03-04T13:49:25.362Z,3.20
2023-03-04T13:51:54.300Z,2.70
2023-03-04T13:54:28.757Z,2.30
2023-03-04T13:57:18.006Z,2.57
2023-03-04T13:59:50.120Z,2.70
2023-03-04T14:02:22.685Z,2.80
2023-03-04T14:05:01.589Z,3.20
2023-03-04T14:07:32.089Z,3.40
2023-03-04T14:10:04.723Z,3.07
2023-03-04T14:12:37.401Z,3.53
2023-03-04T14:15:21.322Z,4.17
2023-03-04T14:17:53.500Z,4.47
2023-03-04T14:20:31.164Z,5.00
2023-03-04T14:23:00.816Z,4.07
2023-03-04T14:25:31.173Z,4.23
2023-03-04T14:28:12.232Z,4.53
2023-03-04T14:30:43.971Z,4.80
2023-03-04T14:33:20.899Z,3.30
2023-03-04T14:35:53.327Z,3.30
2023-03-04T14:38:27.682Z,2.97
2023-03-04T14:41:04.535Z,2.57
2023-03-04T14:43:37.304Z,2.70
2023-03-04T14:46:13.012Z,2.27
2023-03-04T14:48:49.126Z,2.50
2023-03-04T14:51:34.568Z,2.70
2023-03-04T14:54:02.653Z,3.20
2023-03-04T14:56:34.631Z,3.17
2023-03-04T14:59:02.712Z,2.57
2023-03-04T15:01:35.428Z,2.57
2023-03-04T15:04:06.526Z,2.10
2023-03-04T15:06:39.900Z,2.60
2023-03-04T15:09:19.488Z,1.97
2023-03-04T15:11:51.134Z,1.90
2023-03-04T15:14:46.457Z,2.40
2023-03-04T15:17:38.614Z,2.20
2023-03-04T15:20:34.005Z,2.47
2023-03-04T15:23:08.359Z,2.60
2023-03-04T15:25:37.835Z,2.47
2023-03-04T15:28:16.805Z,2.87
2023-03-04T15:30:45.282Z,2.77
2023-03-04T15:33:14.671Z,2.80
2023-03-04T15:35:53.524Z,2.40
2023-03-04T15:38:23.698Z,2.60
2023-03-04T15:40:54.489Z,2.40
2023-03-04T15:43:24.574Z,2.37
2023-03-04T15:45:54.201Z,1.83
2023-03-04T15:48:22.898Z,2.00
2023-03-04T15:50:56.722Z,1.80
2023-03-04T15:53:33.884Z,1.70
2023-03-04T15:56:03.593Z,1.90
2023-03-04T15:58:35.190Z,1.60
2023-03-04T16:01:04.462Z,1.50
2023-03-04T16:03:32.774Z,1.80
2023-03-04T16:06:01.116Z,1.47
2023-03-04T16:08:30.566Z,1.80
2023-03-04T16:10:58.623Z,1.83
2023-03-04T16:13:26.682Z,1.60
2023-03-04T16:15:54.834Z,1.90
2023-03-04T16:18:23.657Z,1.97
2023-03-04T16:20:53.248Z,1.57
2023-03-04T16:23:24.761Z,1.50
2023-03-04T16:25:57.717Z,1.30
2023-03-04T16:28:26.002Z,1.70
2023-03-04T16:30:54.109Z,1.70
2023-03-04T16:33:22.155Z,1.77
2023-03-04T16:35:51.713Z,1.70
2023-03-04T16:38:28.036Z,1.50
2023-03-04T16:40:59.396Z,1.90
2023-03-04T16:43:27.656Z,1.53
2023-03-04T16:45:56.065Z,1.53
2023-03-04T16:48:24.377Z,1.97
2023-03-04T16:50:52.481Z,1.50
2023-03-04T16:53:33.099Z,1.60
2023-03-04T16:56:07.474Z,1.57
2023-03-04T16:58:35.524Z,2.10
2023-03-04T17:01:04.962Z,1.30
2023-03-04T17:03:33.326Z,1.33
2023-03-04T17:06:01.469Z,1.70
2023-03-04T17:08:29.581Z,1.47
2023-03-04T17:10:57.663Z,1.47
2023-03-04T17:13:27.240Z,1.40
2023-03-04T17:15:55.508Z,1.53
2023-03-04T17:18:23.610Z,1.80
2023-03-04T17:20:51.832Z,1.53
2023-03-04T17:23:19.903Z,1.67
2023-03-04T17:25:56.184Z,1.90
2023-03-04T17:28:25.985Z,1.97
2023-03-04T17:30:54.584Z,1.60
2023-03-04T17:33:22.953Z,1.50
2023-03-04T17:35:51.441Z,1.90
2023-03-04T17:38:20.067Z,2.07
2023-03-04T17:40:48.176Z,2.60
2023-03-04T17:43:16.241Z,2.00
2023-03-04T17:45:45.776Z,1.70
2023-03-04T17:48:15.145Z,1.80
2023-03-04T17:50:50.400Z,1.80
2023-03-04T17:53:19.525Z,1.50
2023-03-04T17:55:51.262Z,1.70
2023-03-04T17:58:19.779Z,1.80
2023-03-04T18:00:50.932Z,1.67
2023-03-04T18:03:19.661Z,1.60
2023-03-04T18:05:47.746Z,1.83
2023-03-04T18:08:15.822Z,2.07
2023-03-04T18:10:43.995Z,1.70
2023-03-04T18:13:12.316Z,2.07
2023-03-04T18:15:40.519Z,1.80
2023-03-04T18:18:09.939Z,2.10
2023-03-04T18:20:38.044Z,1.87
2023-03-04T18:23:06.407Z,1.97
2023-03-04T18:25:34.653Z,1.80
2023-03-04T18:28:04.198Z,2.30
2023-03-04T18:30:32.640Z,2.40
2023-03-04T18:33:02.008Z,2.37
2023-03-04T18:35:31.536Z,2.00
2023-03-04T18:37:59.917Z,2.83
2023-03-04T18:40:28.529Z,2.20
2023-03-04T18:42:59.818Z,2.40
2023-03-04T18:45:28.974Z,1.97
2023-03-04T18:47:58.212Z,2.30
2023-03-04T18:50:27.157Z,1.83
2023-03-04T18:52:56.538Z,2.07
2023-03-04T18:55:26.606Z,1.93
2023-03-04T18:58:01.311Z,1.77
2023-03-04T19:00:30.222Z,2.30
2023-03-04T19:03:03.509Z,2.07
2023-03-04T19:05:34.002Z,1.83
2023-03-04T19:08:04.872Z,2.03
2023-03-04T19:10:33.447Z,2.13
2023-03-04T19:13:02.089Z,2.00
2023-03-04T19:15:30.326Z,2.33
2023-03-04T19:17:58.663Z,2.23
2023-03-04T19:20:26.986Z,2.00
2023-03-04T19:22:55.078Z,2.37
2023-03-04T19:25:24.592Z,2.10
2023-03-04T19:27:55.303Z,2.20
2023-03-04T19:30:23.666Z,2.37
2023-03-04T19:32:51.803Z,1.87
2023-03-04T19:35:19.927Z,2.17
2023-03-04T19:37:48.137Z,2.20
2023-03-04T19:40:16.268Z,3.90
2023-03-04T19:42:45.785Z,2.77
2023-03-04T19:45:13.894Z,2.50
2023-03-04T19:47:42.564Z,2.70
2023-03-04T19:50:13.340Z,2.80
2023-03-04T19:52:41.830Z,2.30
2023-03-04T19:55:12.700Z,2.50
2023-03-04T19:57:42.812Z,2.30
2023-03-04T20:00:15.082Z,2.80
2023-03-04T20:02:47.850Z,2.90
2023-03-04T20:05:16.261Z,2.73
2023-03-04T20:07:44.894Z,2.70
2023-03-04T20:10:14.386Z,3.00
2023-03-04T20:12:42.577Z,2.97
2023-03-04T20:15:13.074Z,3.03
2023-03-04T20:17:41.206Z,3.40
2023-03-04T20:20:12.380Z,3.30
2023-03-04T20:22:40.808Z,2.80
2023-03-04T20:25:09.869Z,2.67
2023-03-04T20:27:38.031Z,2.57
2023-03-04T20:30:07.729Z,2.63
2023-03-04T20:32:37.549Z,2.30
2023-03-04T20:35:06.750Z,2.37
2023-03-04T20:37:36.067Z,1.80
2023-03-04T20:40:04.634Z,2.13
2023-03-04T20:42:33.820Z,3.03
2023-03-04T20:45:01.911Z,2.13
2023-03-04T20:47:31.151Z,2.53
2023-03-04T20:50:00.650Z,2.50
2023-03-04T20:52:28.835Z,2.70
2023-03-04T20:54:56.932Z,2.33
2023-03-04T20:57:25.317Z,2.77
2023-03-04T20:59:53.582Z,2.33
2023-03-04T21:02:23.412Z,2.40
2023-03-04T21:04:51.604Z,2.23
2023-03-04T21:07:21.084Z,2.30
2023-03-04T21:09:49.216Z,2.20
2023-03-04T21:12:17.394Z,2.50
2023-03-04T21:14:45.902Z,2.23
2023-03-04T21:17:14.382Z,2.30
2023-03-04T21:19:44.320Z,2.40
2023-03-04T21:22:16.692Z,1.93
2023-03-04T21:24:47.828Z,2.10
2023-03-04T21:27:16.810Z,2.30
2023-03-04T21:29:45.271Z,2.30
2023-03-04T21:32:24.323Z,2.67
2023-03-04T21:34:56.126Z,3.10
2023-03-04T21:37:26.309Z,3.63
2023-03-04T21:39:56.684Z,3.73
2023-03-04T21:42:25.037Z,4.13
2023-03-04T21:44:53.161Z,3.90
2023-03-04T21:47:22.320Z,3.77
2023-03-04T21:49:51.282Z,3.60
2023-03-04T21:52:21.250Z,3.63
2023-03-04T21:54:49.761Z,4.20
2023-03-04T21:57:20.059Z,4.07
2023-03-04T21:59:48.399Z,3.60
2023-03-04T22:02:19.109Z,3.50
2023-03-04T22:04:48.229Z,3.33
2023-03-04T22:07:16.539Z,3.53
2023-03-04T22:09:45.176Z,3.23
2023-03-04T22:12:14.430Z,3.90
2023-03-04T22:14:44.276Z,3.37
2023-03-04T22:17:12.467Z,3.67
2023-03-04T22:19:41.000Z,2.93
2023-03-04T22:22:09.211Z,2.63
2023-03-04T22:24:37.644Z,2.60
2023-03-04T22:27:05.976Z,2.30
2023-03-04T22:29:34.402Z,2.07
2023-03-04T22:32:03.865Z,2.03
2023-03-04T22:34:32.007Z,2.13
2023-03-04T22:37:00.153Z,2.30
2023-03-04T22:39:28.655Z,2.20
2023-03-04T22:41:56.924Z,1.93
2023-03-04T22:44:25.799Z,1.50
2023-03-04T22:46:53.878Z,1.83
2023-03-04T22:49:23.339Z,2.03
2023-03-04T22:51:51.434Z,1.83
2023-03-04T22:54:20.351Z,2.03
2023-03-04T22:56:48.490Z,1.77
2023-03-04T22:59:16.797Z,2.17
2023-03-04T23:01:44.953Z,1.70
2023-03-04T23:04:13.295Z,1.73
2023-03-04T23:06:42.748Z,1.77
2023-03-04T23:09:11.039Z,1.77
2023-03-04T23:11:39.403Z,2.00
2023-03-04T23:14:11.798Z,2.10
2023-03-04T23:16:44.127Z,1.90
2023-03-04T23:19:15.254Z,2.13
2023-03-04T23:21:45.564Z,1.70
2023-03-04T23:24:14.785Z,1.83
2023-03-04T23:26:44.297Z,1.77
2023-03-04T23:29:16.008Z,1.80
2023-03-04T23:31:44.412Z,2.17
2023-03-04T23:34:13.041Z,1.83
2023-03-04T23:36:41.404Z,2.03
2023-03-04T23:39:12.561Z,3.67
2023-03-04T23:41:40.858Z,2.87
2023-03-04T23:44:11.996Z,1.90
2023-03-04T23:46:40.906Z,2.17
2023-03-04T23:49:12.463Z,1.93
2023-03-04T23:51:40.999Z,2.60
2023-03-04T23:54:10.505Z,1.93
2023-03-04T23:56:39.370Z,1.63
2023-03-04T23:59:09.115Z,1.93
